RJBT(METAR)
01/26 13:00
METAR RJBT 260400Z 36010KT 330V030 9999 FEW030 BKN/// 10/M01 Q1023
RMK 1CU030 A3023=
戻る
トップページへ戻る
IMOC Co,.Ltd.